Time;durP1;ratioP1;P1;durP2;ratioP2;P2;SDS_P1;SDS_P2;PMS_P1;PMS_P2;Temp;Humidity;BMP_temperature;BMP_pressure;BME280_temperature;BME280_humidity;BME280_pressure;Samples;Min_cycle;Max_cycle;Signal;HPM_P1;HPM_P2
2024/01/02 00:00:34;;;;;;;;;;;;;;;-144.99;nan;52617.28;5078545;28;20023;-69
2024/01/02 00:03:01;;;;;;;;;;;;;;;-144.99;nan;52582.63;5075558;28;20022;-64
2024/01/02 00:05:27;;;;;;;;;;;;;;;-144.99;nan;52590.78;5075907;28;19924;-69
2024/01/02 00:07:54;;;;;;;;;;;;;;;-144.99;nan;52647.84;5077429;28;20492;-69
2024/01/02 00:10:22;;;;;;;;;;;;;;;-144.99;nan;52627.47;5080379;28;19929;-65
2024/01/02 00:12:48;;;;;;;;;;;;;;;-144.99;nan;52607.09;5082072;28;20382;-65
2024/01/02 00:15:16;;;;;;;;;;;;;;;-144.99;nan;52635.63;5084863;28;19978;-66
2024/01/02 00:17:42;;;;;;;;;;;;;;;-144.99;nan;52607.09;5083832;28;20026;-65
2024/01/02 00:20:09;;;;;;;;;;;;;;;-144.99;nan;52611.16;5080217;28;20019;-65
2024/01/02 00:22:36;;;;;;;;;;;;;;;-144.99;nan;52592.81;5083876;28;20022;-65
2024/01/02 00:25:05;;;;;;;;;;;;;;;-144.99;nan;52605.03;5080865;28;19981;-65
2024/01/02 00:27:32;;;;;;;;;;;;;;;-144.99;nan;52611.16;5083156;28;19931;-65
2024/01/02 00:29:58;;;;;;;;;;;;;;;-144.99;nan;52619.31;5080331;28;20007;-65
2024/01/02 00:32:26;;;;;;;;;;;;;;;-144.99;nan;52617.28;5072370;28;20020;-65
2024/01/02 00:34:52;;;;;;;;;;;;;;;-144.99;nan;52621.34;5075678;28;19994;-64
2024/01/02 00:37:19;;;;;;;;;;;;;;;-144.99;nan;52570.38;5082935;28;19939;-64
2024/01/02 00:39:45;;;;;;;;;;;;;;;-144.99;nan;52570.38;5075891;28;19987;-64
2024/01/02 00:42:12;;;;;;;;;;;;;;;-144.99;nan;52643.78;5082568;28;20170;-64
2024/01/02 00:44:38;;;;;;;;;;;;;;;-144.99;nan;52562.25;5080111;28;20240;-63
2024/01/02 00:47:05;;;;;;;;;;;;;;;-144.99;nan;52615.25;5077123;28;20027;-78
2024/01/02 00:49:33;;;;;;;;;;;;;;;-144.99;nan;52631.53;5083709;28;20382;-78
2024/01/02 00:51:59;;;;;;;;;;;;;;;-144.99;nan;52623.38;5081087;28;19938;-66
2024/01/02 00:54:25;;;;;;;;;;;;;;;-144.99;nan;52639.69;5080467;28;20009;-68
2024/01/02 00:56:52;;;;;;;;;;;;;;;-144.99;nan;52598.94;5076345;28;19956;-69
2024/01/02 00:59:18;;;;;;;;;;;;;;;-144.99;nan;52619.31;5082459;28;19970;-69
2024/01/02 01:01:45;;;;;;;;;;;;;;;-144.99;nan;52639.69;5080716;28;20014;-69
2024/01/02 01:04:11;;;;;;;;;;;;;;;-144.99;nan;52676.38;5081806;28;20400;-74
2024/01/02 01:06:39;;;;;;;;;;;;;;;-144.99;nan;52607.09;5082394;28;19932;-72
2024/01/02 01:09:06;;;;;;;;;;;;;;;-144.99;nan;52615.25;5082650;28;20006;-71
2024/01/02 01:11:32;;;;;;;;;;;;;;;-144.99;nan;52594.84;5082444;28;19971;-72
2024/01/02 01:13:59;;;;;;;;;;;;;;;-144.99;nan;52580.59;4732210;28;10000242;-72
2024/01/02 01:16:25;;;;;;;;;;;;;;;-144.99;nan;52598.94;5081210;28;20449;-71
2024/01/02 01:18:52;;;;;;;;;;;;;;;-144.99;nan;52637.66;5080513;28;20086;-71
2024/01/02 01:21:19;;;;;;;;;;;;;;;-144.99;nan;52607.09;5082605;28;20095;-70
2024/01/02 01:23:46;;;;;;;;;;;;;;;-144.99;nan;52629.50;5082629;28;19932;-70
2024/01/02 01:26:13;;;;;;;;;;;;;;;-144.99;nan;52586.69;5082690;28;19928;-71
2024/01/02 01:28:39;;;;;;;;;;;;;;;-144.99;nan;52578.53;5085814;28;20306;-69
2024/01/02 01:31:06;;;;;;;;;;;;;;;-144.99;nan;52672.31;5084377;28;19971;-69
2024/01/02 01:33:32;;;;;;;;;;;;;;;-144.99;nan;52603.00;5083320;28;20029;-69
2024/01/02 01:35:59;;;;;;;;;;;;;;;-144.99;nan;52623.38;5089932;28;19924;-70
2024/01/02 01:38:25;;;;;;;;;;;;;;;-144.99;nan;52600.97;5092484;28;19928;-69
2024/01/02 01:40:53;;;;;;;;;;;;;;;-144.99;nan;52617.28;5090374;28;20300;-70
2024/01/02 01:43:20;;;;;;;;;;;;;;;-144.99;nan;52594.84;5087851;28;19928;-71
2024/01/02 01:45:46;;;;;;;;;;;;;;;-144.99;nan;52621.34;5087906;28;19963;-71
2024/01/02 01:48:13;;;;;;;;;;;;;;;-144.99;nan;52615.25;5092171;28;20409;-70
2024/01/02 01:50:39;;;;;;;;;;;;;;;-144.99;nan;52596.88;5092380;28;19985;-67
2024/01/02 01:53:07;;;;;;;;;;;;;;;-144.99;nan;52627.47;5070042;28;19975;-67
2024/01/02 01:55:34;;;;;;;;;;;;;;;-144.99;nan;52619.31;5090658;28;19967;-64
2024/01/02 01:58:02;;;;;;;;;;;;;;;-144.99;nan;52635.63;5093113;28;19959;-63
2024/01/02 02:00:29;;;;;;;;;;;;;;;-144.99;nan;52615.25;5093513;28;20015;-63
2024/01/02 02:02:56;;;;;;;;;;;;;;;-144.99;nan;52621.34;5091179;28;19974;-62
2024/01/02 02:05:23;;;;;;;;;;;;;;;-144.99;nan;52607.09;5092124;28;20001;-63
2024/01/02 02:07:51;;;;;;;;;;;;;;;-144.99;nan;52605.03;5087231;28;19932;-63
2024/01/02 02:10:17;;;;;;;;;;;;;;;-144.99;nan;52629.50;5056877;28;19924;-63
2024/01/02 02:12:44;;;;;;;;;;;;;;;-144.99;nan;52603.00;5090473;28;19976;-63
2024/01/02 02:15:12;;;;;;;;;;;;;;;-144.99;nan;52596.88;5090074;28;20557;-64
2024/01/02 02:17:38;;;;;;;;;;;;;;;-144.99;nan;52582.63;5088881;28;19928;-64
2024/01/02 02:20:05;;;;;;;;;;;;;;;-144.99;nan;52613.19;5092487;28;20015;-67
2024/01/02 02:22:34;;;;;;;;;;;;;;;-144.99;nan;52588.75;5085618;28;20019;-66
2024/01/02 02:25:02;;;;;;;;;;;;;;;-144.99;nan;52607.09;5086621;28;19965;-66
2024/01/02 02:27:29;;;;;;;;;;;;;;;-144.99;nan;52590.78;5084836;28;19963;-65
2024/01/02 02:29:55;;;;;;;;;;;;;;;-144.99;nan;52603.00;5088650;28;20011;-65
2024/01/02 02:32:23;;;;;;;;;;;;;;;-144.99;nan;52582.63;5089622;28;20410;-65
2024/01/02 02:34:49;;;;;;;;;;;;;;;-144.99;nan;52613.19;5086776;28;19925;-66
2024/01/02 02:37:16;;;;;;;;;;;;;;;-144.99;nan;52611.16;5089321;28;20059;-65
2024/01/02 02:39:42;;;;;;;;;;;;;;;-144.99;nan;52590.78;5088151;28;20438;-66
2024/01/02 02:42:10;;;;;;;;;;;;;;;-144.99;nan;52603.00;5092555;28;20198;-66
2024/01/02 02:44:36;;;;;;;;;;;;;;;-144.99;nan;52625.44;5083512;28;20449;-66
2024/01/02 02:47:03;;;;;;;;;;;;;;;-144.99;nan;52598.94;5086570;28;19924;-66
2024/01/02 02:49:29;;;;;;;;;;;;;;;-144.99;nan;52617.28;5088571;28;19959;-66
2024/01/02 02:51:56;;;;;;;;;;;;;;;-144.99;nan;52590.78;5089021;28;19928;-66
2024/01/02 02:54:22;;;;;;;;;;;;;;;-144.99;nan;52627.47;5083618;28;20023;-67
2024/01/02 02:56:49;;;;;;;;;;;;;;;-144.99;nan;52603.00;5083571;28;20417;-68
2024/01/02 02:59:17;;;;;;;;;;;;;;;-144.99;nan;52570.38;5083236;28;19928;-68
2024/01/02 03:01:43;;;;;;;;;;;;;;;-144.99;nan;52603.00;5081922;28;19978;-68
2024/01/02 03:04:10;;;;;;;;;;;;;;;-144.99;nan;52605.03;5087456;28;20427;-67
2024/01/02 03:06:36;;;;;;;;;;;;;;;-144.99;nan;52633.59;5082302;28;19986;-67
2024/01/02 03:09:03;;;;;;;;;;;;;;;-144.99;nan;52619.31;5080559;28;20067;-67
2024/01/02 03:11:29;;;;;;;;;;;;;;;-144.99;nan;52619.31;5087415;28;20015;-68
2024/01/02 03:13:56;;;;;;;;;;;;;;;-144.99;nan;52590.78;5086410;28;19971;-67
2024/01/02 03:16:24;;;;;;;;;;;;;;;-144.99;nan;52623.38;5088062;28;20036;-68
2024/01/02 03:18:51;;;;;;;;;;;;;;;-144.99;nan;52607.09;5084486;28;20045;-67
2024/01/02 03:21:17;;;;;;;;;;;;;;;-144.99;nan;52611.16;5084679;28;20420;-66
2024/01/02 03:23:44;;;;;;;;;;;;;;;-144.99;nan;52590.78;5086522;28;20681;-66
2024/01/02 03:26:11;;;;;;;;;;;;;;;-144.99;nan;52615.25;5082758;28;20390;-65
2024/01/02 03:28:37;;;;;;;;;;;;;;;-144.99;nan;52619.31;5083658;28;20065;-66
2024/01/02 03:31:05;;;;;;;;;;;;;;;-144.99;nan;52627.47;5087304;28;19967;-66
2024/01/02 03:33:33;;;;;;;;;;;;;;;-144.99;nan;52643.78;5082184;28;19924;-65
2024/01/02 03:36:00;;;;;;;;;;;;;;;-144.99;nan;52566.31;5081105;28;20009;-65
2024/01/02 03:38:26;;;;;;;;;;;;;;;-144.99;nan;52633.59;5086913;28;19928;-65
2024/01/02 03:40:53;;;;;;;;;;;;;;;-144.99;nan;52631.53;5088386;28;19967;-65
2024/01/02 03:43:19;;;;;;;;;;;;;;;-144.99;nan;52631.53;5084136;28;19939;-67
2024/01/02 03:45:46;;;;;;;;;;;;;;;-144.99;nan;52619.31;5086319;28;19924;-65
2024/01/02 03:48:12;;;;;;;;;;;;;;;-144.99;nan;52611.16;5088645;28;19925;-64
2024/01/02 03:50:40;;;;;;;;;;;;;;;-144.99;nan;52566.31;5089271;28;19993;-74
2024/01/02 03:53:06;;;;;;;;;;;;;;;-144.99;nan;52627.47;5080875;28;20332;-74
2024/01/02 03:55:33;;;;;;;;;;;;;;;-144.99;nan;52631.53;5081446;28;19924;-74
2024/01/02 03:57:59;;;;;;;;;;;;;;;-144.99;nan;52590.78;5085382;28;19970;-74
2024/01/02 04:00:26;;;;;;;;;;;;;;;-144.99;nan;52631.53;5088856;28;19978;-75
2024/01/02 04:02:52;;;;;;;;;;;;;;;-144.99;nan;52631.53;5085660;28;19925;-73
2024/01/02 04:05:19;;;;;;;;;;;;;;;-144.99;nan;52598.94;5083438;28;19932;-72
2024/01/02 04:07:47;;;;;;;;;;;;;;;-144.99;nan;52631.53;5086608;28;19932;-71
2024/01/02 04:10:15;;;;;;;;;;;;;;;-144.99;nan;52586.69;5085163;28;19947;-71
2024/01/02 04:12:41;;;;;;;;;;;;;;;-144.99;nan;52619.31;5088122;28;20267;-71
2024/01/02 04:15:08;;;;;;;;;;;;;;;-144.99;nan;52590.78;5087031;28;20044;-71
2024/01/02 04:17:34;;;;;;;;;;;;;;;-144.99;nan;52674.34;5086411;28;19960;-71
2024/01/02 04:20:01;;;;;;;;;;;;;;;-144.99;nan;52600.97;5085765;28;20390;-66
2024/01/02 04:22:27;;;;;;;;;;;;;;;-144.99;nan;52594.84;5083738;28;19931;-68
2024/01/02 04:24:55;;;;;;;;;;;;;;;-144.99;nan;52621.34;5085050;28;20023;-67
2024/01/02 04:27:22;;;;;;;;;;;;;;;-144.99;nan;52615.25;5081554;28;20015;-68
2024/01/02 04:29:48;;;;;;;;;;;;;;;-144.99;nan;52598.94;5082559;28;20030;-67
2024/01/02 04:32:15;;;;;;;;;;;;;;;-144.99;nan;52590.78;5084363;28;19990;-66
2024/01/02 04:34:42;;;;;;;;;;;;;;;-144.99;nan;52635.63;5075332;28;20020;-67
2024/01/02 04:37:08;;;;;;;;;;;;;;;-144.99;nan;52623.38;5085272;28;19935;-67
2024/01/02 04:39:35;;;;;;;;;;;;;;;-144.99;nan;52621.34;5081932;28;20083;-66
2024/01/02 04:42:02;;;;;;;;;;;;;;;-144.99;nan;52619.31;5075624;28;20074;-68
2024/01/02 04:44:29;;;;;;;;;;;;;;;-144.99;nan;52619.31;5083720;28;19924;-66
2024/01/02 04:46:56;;;;;;;;;;;;;;;-144.99;nan;52658.03;5082816;28;19924;-69
2024/01/02 04:49:23;;;;;;;;;;;;;;;-144.99;nan;52596.88;5084575;28;20011;-70
2024/01/02 04:51:49;;;;;;;;;;;;;;;-144.99;nan;52607.09;5079188;28;19963;-62
2024/01/02 04:54:17;;;;;;;;;;;;;;;-144.99;nan;52590.78;5081650;28;19931;-61
2024/01/02 04:56:44;;;;;;;;;;;;;;;-144.99;nan;52598.94;5074930;28;19935;-64
2024/01/02 04:59:11;;;;;;;;;;;;;;;-144.99;nan;52580.59;5080558;28;20242;-63
2024/01/02 05:01:38;;;;;;;;;;;;;;;-144.99;nan;52631.53;5084255;28;20032;-64
2024/01/02 05:04:05;;;;;;;;;;;;;;;-144.99;nan;52598.94;5080627;28;19930;-63
2024/01/02 05:06:31;;;;;;;;;;;;;;;-144.99;nan;52582.63;5081187;28;19924;-64
2024/01/02 05:08:58;;;;;;;;;;;;;;;-144.99;nan;52566.31;5083862;28;20397;-64
2024/01/02 05:11:24;;;;;;;;;;;;;;;-144.99;nan;52635.63;5083696;28;19924;-64
2024/01/02 05:13:51;;;;;;;;;;;;;;;-144.99;nan;52615.25;5084253;28;19924;-64
2024/01/02 05:16:19;;;;;;;;;;;;;;;-144.99;nan;52594.84;5085981;28;20028;-64
2024/01/02 05:18:45;;;;;;;;;;;;;;;-144.99;nan;52615.25;5077312;28;19963;-67
2024/01/02 05:21:11;;;;;;;;;;;;;;;-144.99;nan;52590.78;5083735;28;20018;-66
2024/01/02 05:23:38;;;;;;;;;;;;;;;-144.99;nan;52592.81;5085345;28;19967;-66
2024/01/02 05:26:05;;;;;;;;;;;;;;;-144.99;nan;52598.94;5082960;28;19955;-68
2024/01/02 05:28:31;;;;;;;;;;;;;;;-144.99;nan;52603.00;5087196;28;19951;-70
2024/01/02 05:30:58;;;;;;;;;;;;;;;-144.99;nan;52611.16;5086181;28;20377;-70
2024/01/02 05:33:26;;;;;;;;;;;;;;;-144.99;nan;52615.25;5084324;28;20354;-70
2024/01/02 05:35:52;;;;;;;;;;;;;;;-144.99;nan;52609.13;5083047;28;20406;-71
2024/01/02 05:38:19;;;;;;;;;;;;;;;-144.99;nan;52625.44;5086343;28;20001;-71
2024/01/02 05:40:45;;;;;;;;;;;;;;;-144.99;nan;52594.84;5086434;28;20392;-71
2024/01/02 05:43:12;;;;;;;;;;;;;;;-144.99;nan;52607.09;5087922;28;19938;-71
2024/01/02 05:45:38;;;;;;;;;;;;;;;-144.99;nan;52603.00;5085049;28;20011;-72
2024/01/02 05:48:05;;;;;;;;;;;;;;;-144.99;nan;52603.00;5088458;28;19967;-71
2024/01/02 05:50:33;;;;;;;;;;;;;;;-144.99;nan;52607.09;5088417;28;20346;-72
2024/01/02 05:52:59;;;;;;;;;;;;;;;-144.99;nan;52594.84;5088086;28;19924;-74
2024/01/02 05:55:26;;;;;;;;;;;;;;;-144.99;nan;52560.19;5085551;28;20356;-74
2024/01/02 05:57:52;;;;;;;;;;;;;;;-144.99;nan;52590.78;5088394;28;19948;-73
2024/01/02 06:00:19;;;;;;;;;;;;;;;-144.99;nan;52598.94;5087992;28;20346;-73
2024/01/02 06:02:45;;;;;;;;;;;;;;;-144.99;nan;52611.16;5086683;28;20416;-73
2024/01/02 06:05:12;;;;;;;;;;;;;;;-144.99;nan;52627.47;5080414;28;19981;-73
2024/01/02 06:07:40;;;;;;;;;;;;;;;-144.99;nan;52598.94;5086040;28;19936;-74
2024/01/02 06:10:07;;;;;;;;;;;;;;;-144.99;nan;52582.63;5078658;28;20520;-69
2024/01/02 06:12:33;;;;;;;;;;;;;;;-144.99;nan;52570.38;5078657;28;20293;-69
2024/01/02 06:15:00;;;;;;;;;;;;;;;-144.99;nan;52586.69;5083697;28;20020;-76
2024/01/02 06:17:26;;;;;;;;;;;;;;;-144.99;nan;52574.47;5083674;28;19985;-77
2024/01/02 06:19:53;;;;;;;;;;;;;;;-144.99;nan;52623.38;5080367;28;19966;-76
2024/01/02 06:22:19;;;;;;;;;;;;;;;-144.99;nan;52639.69;5088807;28;21181;-76
2024/01/02 06:24:47;;;;;;;;;;;;;;;-144.99;nan;52582.63;5090607;28;19924;-77
2024/01/02 06:27:14;;;;;;;;;;;;;;;-144.99;nan;52615.25;5085513;28;19944;-75
2024/01/02 06:29:40;;;;;;;;;;;;;;;-144.99;nan;52584.66;4728969;28;10000261;-76
2024/01/02 06:32:08;;;;;;;;;;;;;;;-144.99;nan;52607.09;5086102;28;20504;-76
2024/01/02 06:34:37;;;;;;;;;;;;;;;-144.99;nan;52631.53;5078857;28;19974;-75
2024/01/02 06:37:04;;;;;;;;;;;;;;;-144.99;nan;52619.31;5081087;28;20012;-76
2024/01/02 06:39:30;;;;;;;;;;;;;;;-144.99;nan;52631.53;5088703;28;19967;-76
2024/01/02 06:41:58;;;;;;;;;;;;;;;-144.99;nan;52633.59;5088411;28;19924;-74
2024/01/02 06:44:24;;;;;;;;;;;;;;;-144.99;nan;52627.47;5086358;28;19967;-75
2024/01/02 06:46:51;;;;;;;;;;;;;;;-144.99;nan;52594.84;5082501;28;19975;-75
2024/01/02 06:49:17;;;;;;;;;;;;;;;-144.99;nan;52623.38;5082794;28;19981;-76
2024/01/02 06:51:44;;;;;;;;;;;;;;;-144.99;nan;52570.38;5083246;28;19924;-76
2024/01/02 06:54:10;;;;;;;;;;;;;;;-144.99;nan;52603.00;5079828;28;19990;-75
2024/01/02 06:56:37;;;;;;;;;;;;;;;-144.99;nan;52603.00;5084216;28;20420;-75
2024/01/02 06:59:06;;;;;;;;;;;;;;;-144.99;nan;52598.94;5063334;28;20331;-75
2024/01/02 07:01:33;;;;;;;;;;;;;;;-144.99;nan;52639.69;5079666;28;19924;-75
2024/01/02 07:03:59;;;;;;;;;;;;;;;-144.99;nan;52582.63;5081804;28;20013;-75
2024/01/02 07:06:26;;;;;;;;;;;;;;;-144.99;nan;52635.63;5084648;28;20588;-75
2024/01/02 07:08:52;;;;;;;;;;;;;;;-144.99;nan;52639.69;5085146;28;19973;-75
2024/01/02 07:11:19;;;;;;;;;;;;;;;-144.99;nan;52594.84;5084119;28;20023;-76
2024/01/02 07:13:45;;;;;;;;;;;;;;;-144.99;nan;52594.84;5080349;28;19967;-75
2024/01/02 07:16:13;;;;;;;;;;;;;;;-144.99;nan;52611.16;5080450;28;19928;-75
2024/01/02 07:18:39;;;;;;;;;;;;;;;-144.99;nan;52580.59;5080622;28;20019;-75
2024/01/02 07:21:07;;;;;;;;;;;;;;;-144.99;nan;52603.00;5077678;28;20439;-75
2024/01/02 07:23:34;;;;;;;;;;;;;;;-144.99;nan;52578.53;5076908;28;19924;-74
2024/01/02 07:26:00;;;;;;;;;;;;;;;-144.99;nan;52590.78;5093015;28;19928;-75
2024/01/02 07:28:27;;;;;;;;;;;;;;;-144.99;nan;52603.00;5079990;28;19967;-75
2024/01/02 07:30:53;;;;;;;;;;;;;;;-144.99;nan;52611.16;5077187;28;20268;-75
2024/01/02 07:33:21;;;;;;;;;;;;;;;-144.99;nan;52627.47;5078510;28;20024;-75
2024/01/02 07:35:48;;;;;;;;;;;;;;;-144.99;nan;52619.31;5081760;28;20019;-74
2024/01/02 07:38:14;;;;;;;;;;;;;;;-144.99;nan;52623.38;5084593;28;20024;-74
2024/01/02 07:40:41;;;;;;;;;;;;;;;-144.99;nan;52635.63;5082022;28;19928;-74
2024/01/02 07:43:07;;;;;;;;;;;;;;;-144.99;nan;52615.25;5078763;28;19947;-74
2024/01/02 07:45:34;;;;;;;;;;;;;;;-144.99;nan;52609.13;5075504;28;19979;-75
2024/01/02 07:48:00;;;;;;;;;;;;;;;-144.99;nan;52631.53;5078356;28;19928;-74
2024/01/02 07:50:28;;;;;;;;;;;;;;;-144.99;nan;52590.78;5085757;28;20039;-74
2024/01/02 07:52:55;;;;;;;;;;;;;;;-144.99;nan;52594.84;5080421;28;20473;-74
2024/01/02 07:55:21;;;;;;;;;;;;;;;-144.99;nan;52588.75;5081503;28;20363;-74
2024/01/02 07:57:48;;;;;;;;;;;;;;;-144.99;nan;52600.97;5080153;28;20057;-74
2024/01/02 08:00:15;;;;;;;;;;;;;;;-144.99;nan;52619.31;5083558;28;19932;-74
2024/01/02 08:02:41;;;;;;;;;;;;;;;-144.99;nan;52615.25;5087568;28;19993;-73
2024/01/02 08:05:08;;;;;;;;;;;;;;;-144.99;nan;52578.53;5080789;28;19963;-74
2024/01/02 08:07:36;;;;;;;;;;;;;;;-144.99;nan;52611.16;5084193;28;19924;-73
2024/01/02 08:10:03;;;;;;;;;;;;;;;-144.99;nan;52590.78;5082776;28;19931;-73
2024/01/02 08:12:29;;;;;;;;;;;;;;;-144.99;nan;52651.94;5083612;28;21356;-73
2024/01/02 08:14:56;;;;;;;;;;;;;;;-144.99;nan;52598.94;5075370;28;20233;-74
2024/01/02 08:17:24;;;;;;;;;;;;;;;-144.99;nan;52586.69;5083723;28;20344;-73
2024/01/02 08:19:50;;;;;;;;;;;;;;;-144.99;nan;52574.47;5078990;28;19951;-73
2024/01/02 08:22:17;;;;;;;;;;;;;;;-144.99;nan;52592.81;5079491;28;20011;-74
2024/01/02 08:24:45;;;;;;;;;;;;;;;-144.99;nan;52619.31;5072924;28;20007;-74
2024/01/02 08:27:11;;;;;;;;;;;;;;;-144.99;nan;52590.78;5078255;28;20009;-72
2024/01/02 08:29:38;;;;;;;;;;;;;;;-144.99;nan;52611.16;5081670;28;20384;-73
2024/01/02 08:32:05;;;;;;;;;;;;;;;-144.99;nan;52635.63;5081671;28;20027;-73
2024/01/02 08:34:31;;;;;;;;;;;;;;;-144.99;nan;52590.78;5079173;28;20010;-72
2024/01/02 08:36:58;;;;;;;;;;;;;;;-144.99;nan;52582.63;5082567;28;19950;-72
2024/01/02 08:39:24;;;;;;;;;;;;;;;-144.99;nan;52582.63;5084059;28;19971;-72
2024/01/02 08:41:52;;;;;;;;;;;;;;;-144.99;nan;52631.53;5084841;28;20530;-72
2024/01/02 08:44:19;;;;;;;;;;;;;;;-144.99;nan;52574.47;5090019;28;19972;-75
2024/01/02 08:46:45;;;;;;;;;;;;;;;-144.99;nan;52607.09;5086900;28;19961;-74
2024/01/02 08:49:13;;;;;;;;;;;;;;;-144.99;nan;52635.63;5119195;27;19912;-74
2024/01/02 08:51:40;;;;;;;;;;;;;;;-144.99;nan;52586.69;5108274;28;19970;-74
2024/01/02 08:54:06;;;;;;;;;;;;;;;-144.99;nan;52594.84;5112264;28;19928;-74
2024/01/02 08:56:33;;;;;;;;;;;;;;;-144.99;nan;52600.97;5108681;28;19913;-75
2024/01/02 08:59:02;;;;;;;;;;;;;;;-144.99;nan;52621.34;5113389;27;19928;-74
2024/01/02 09:01:28;;;;;;;;;;;;;;;-144.99;nan;52623.38;5108029;28;19972;-75
2024/01/02 09:03:55;;;;;;;;;;;;;;;-144.99;nan;52578.53;5108365;28;19912;-75
2024/01/02 09:06:22;;;;;;;;;;;;;;;-144.99;nan;52605.03;5109001;28;19939;-74
2024/01/02 09:08:49;;;;;;;;;;;;;;;-144.99;nan;52641.72;5102925;28;19913;-74
2024/01/02 09:11:16;;;;;;;;;;;;;;;-144.99;nan;52613.19;5107244;28;19923;-74
2024/01/02 09:13:43;;;;;;;;;;;;;;;-144.99;nan;52590.78;5109022;28;20082;-74
2024/01/02 09:16:10;;;;;;;;;;;;;;;-144.99;nan;52611.16;5105098;28;19923;-74
2024/01/02 09:18:37;;;;;;;;;;;;;;;-144.99;nan;52574.47;5099900;28;20294;-73
2024/01/02 09:21:04;;;;;;;;;;;;;;;-144.99;nan;52590.78;5078411;28;19958;-73
2024/01/02 09:23:34;;;;;;;;;;;;;;;-144.99;nan;52619.31;5076974;28;19932;-73
2024/01/02 09:26:03;;;;;;;;;;;;;;;-144.99;nan;52580.59;5068354;28;19928;-73
2024/01/02 09:28:30;;;;;;;;;;;;;;;-144.99;nan;52594.84;5078379;28;20405;-74
2024/01/02 09:30:57;;;;;;;;;;;;;;;-144.99;nan;52586.69;5081230;28;20462;-74
2024/01/02 09:33:26;;;;;;;;;;;;;;;-144.99;nan;52600.97;5073057;28;19992;-74
2024/01/02 09:35:53;;;;;;;;;;;;;;;-144.99;nan;52623.38;5079533;28;20373;-74
2024/01/02 09:38:20;;;;;;;;;;;;;;;-144.99;nan;52623.38;5075725;28;19928;-74
2024/01/02 09:40:59;;;;;;;;;;;;;;;-144.99;nan;52619.31;5079905;28;19954;-74
2024/01/02 09:43:32;;;;;;;;;;;;;;;-144.99;nan;52607.09;5088100;28;19928;-74
2024/01/02 09:46:04;;;;;;;;;;;;;;;-144.99;nan;52607.09;5077954;28;20086;-74
2024/01/02 09:48:38;;;;;;;;;;;;;;;-144.99;nan;52578.53;5082476;28;20034;-74
2024/01/02 09:51:08;;;;;;;;;;;;;;;-144.99;nan;52594.84;5082565;28;20042;-74
2024/01/02 09:53:49;;;;;;;;;;;;;;;-144.99;nan;52629.50;5071521;28;20398;-75
2024/01/02 09:56:17;;;;;;;;;;;;;;;-144.99;nan;52564.28;5078526;28;19937;-75
2024/01/02 09:58:49;;;;;;;;;;;;;;;-144.99;nan;52572.44;5081617;28;19982;-75
2024/01/02 10:01:19;;;;;;;;;;;;;;;-144.99;nan;52582.63;5077690;28;19971;-75
2024/01/02 10:04:04;;;;;;;;;;;;;;;-144.99;nan;52611.16;5082193;28;19928;-75
2024/01/02 10:06:35;;;;;;;;;;;;;;;-144.99;nan;52598.94;5081219;28;19935;-74
2024/01/02 10:09:09;;;;;;;;;;;;;;;-144.99;nan;52598.94;5086403;28;19977;-75
2024/01/02 10:11:42;;;;;;;;;;;;;;;-144.99;nan;52598.94;5082483;28;20119;-74
2024/01/02 10:14:10;;;;;;;;;;;;;;;-144.99;nan;52598.94;5080494;28;19978;-74
2024/01/02 10:16:38;;;;;;;;;;;;;;;-144.99;nan;52578.53;5090011;28;19934;-74
2024/01/02 10:19:13;;;;;;;;;;;;;;;-144.99;nan;52586.69;5089568;28;19981;-73
2024/01/02 10:21:43;;;;;;;;;;;;;;;-144.99;nan;52594.84;5083132;28;20084;-73
2024/01/02 10:24:16;;;;;;;;;;;;;;;-144.99;nan;52574.47;5086259;28;19935;-73
2024/01/02 10:26:46;;;;;;;;;;;;;;;-144.99;nan;52611.16;5089052;28;20245;-74
2024/01/02 10:29:17;;;;;;;;;;;;;;;-144.99;nan;52603.00;5087204;28;19985;-73
2024/01/02 10:31:48;;;;;;;;;;;;;;;-144.99;nan;52588.75;5075365;28;20595;-74
2024/01/02 10:34:21;;;;;;;;;;;;;;;-144.99;nan;52623.38;5074233;28;19997;-74
2024/01/02 10:36:49;;;;;;;;;;;;;;;-144.99;nan;52603.00;5088249;28;19947;-74
2024/01/02 10:39:20;;;;;;;;;;;;;;;-144.99;nan;52623.38;5076710;28;19928;-74
2024/01/02 10:41:52;;;;;;;;;;;;;;;-144.99;nan;52607.09;5076543;28;19941;-74
2024/01/02 10:44:23;;;;;;;;;;;;;;;-144.99;nan;52623.38;5069205;28;20011;-73
2024/01/02 10:46:56;;;;;;;;;;;;;;;-144.99;nan;52574.47;5085073;28;19984;-73
2024/01/02 10:49:34;;;;;;;;;;;;;;;-144.99;nan;52574.47;5086227;28;20622;-73
2024/01/02 10:52:03;;;;;;;;;;;;;;;-144.99;nan;52594.84;5086492;28;20443;-72
2024/01/02 10:54:36;;;;;;;;;;;;;;;-144.99;nan;52562.25;5084415;28;20239;-73
2024/01/02 10:57:07;;;;;;;;;;;;;;;-144.99;nan;52619.31;5076045;28;19964;-73
2024/01/02 10:59:50;;;;;;;;;;;;;;;-144.99;nan;52647.84;5082242;28;20283;-73
2024/01/02 11:02:25;;;;;;;;;;;;;;;-144.99;nan;52574.47;5085670;28;19962;-73
2024/01/02 11:04:59;;;;;;;;;;;;;;;-144.99;nan;52603.00;5076826;28;19932;-72
2024/01/02 11:07:30;;;;;;;;;;;;;;;-144.99;nan;52572.44;5085237;28;19981;-73
2024/01/02 11:10:02;;;;;;;;;;;;;;;-144.99;nan;52541.84;5087530;28;20023;-72
2024/01/02 11:14:58;;;;;;;;;;;;;;;-144.99;nan;52582.63;5120795;27;19928;-71
2024/01/02 11:17:25;;;;;;;;;;;;;;;-144.99;nan;52590.78;5129220;27;20427;-71
2024/01/02 11:20:01;;;;;;;;;;;;;;;-144.99;nan;52623.38;5129509;27;19928;-71
2024/01/02 11:22:29;;;;;;;;;;;;;;;-144.99;nan;52570.38;5128875;27;19971;-72
2024/01/02 11:24:57;;;;;;;;;;;;;;;-144.99;nan;52566.31;5125741;27;20023;-71
2024/01/02 11:27:24;;;;;;;;;;;;;;;-144.99;nan;52607.09;5126872;27;19927;-71
2024/01/02 11:29:52;;;;;;;;;;;;;;;-144.99;nan;52607.09;5128614;27;20014;-70
2024/01/02 11:32:23;;;;;;;;;;;;;;;-144.99;nan;52623.38;5128779;27;20515;-71
2024/01/02 11:34:57;;;;;;;;;;;;;;;-144.99;nan;52611.16;5129790;27;19991;-71
2024/01/02 11:37:29;;;;;;;;;;;;;;;-144.99;nan;52582.63;5121342;27;19927;-72
2024/01/02 11:40:01;;;;;;;;;;;;;;;-144.99;nan;52580.59;5133321;27;19939;-71
2024/01/02 11:42:34;;;;;;;;;;;;;;;-144.99;nan;52623.38;5127220;27;20633;-71
2024/01/02 11:45:08;;;;;;;;;;;;;;;-144.99;nan;52611.16;5117397;27;20315;-70
2024/01/02 11:47:38;;;;;;;;;;;;;;;-144.99;nan;52586.69;5155597;27;19923;-70
2024/01/02 11:50:08;;;;;;;;;;;;;;;-144.99;nan;52592.81;5134862;27;20022;-70
2024/01/02 11:52:45;;;;;;;;;;;;;;;-144.99;nan;52574.47;5119830;27;19966;-72
2024/01/02 11:55:13;;;;;;;;;;;;;;;-144.99;nan;52619.31;5123294;27;19931;-74
2024/01/02 11:57:46;;;;;;;;;;;;;;;-144.99;nan;52586.69;5130277;27;20288;-73
2024/01/02 12:00:17;;;;;;;;;;;;;;;-144.99;nan;52596.88;5127899;27;20030;-72
2024/01/02 12:02:49;;;;;;;;;;;;;;;-144.99;nan;52594.84;5125639;27;19989;-72
2024/01/02 12:05:20;;;;;;;;;;;;;;;-144.99;nan;52586.69;5103059;27;19923;-71
2024/01/02 12:07:50;;;;;;;;;;;;;;;-144.99;nan;52578.53;5125496;27;19949;-74
2024/01/02 12:10:18;;;;;;;;;;;;;;;-144.99;nan;52566.31;5136361;27;20046;-71
2024/01/02 12:12:49;;;;;;;;;;;;;;;-144.99;nan;52603.00;5115812;27;19927;-72
2024/01/02 12:15:17;;;;;;;;;;;;;;;-144.99;nan;52570.38;5120772;27;20478;-73
2024/01/02 12:17:47;;;;;;;;;;;;;;;-144.99;nan;52594.84;5122573;27;20025;-72
2024/01/02 12:20:16;;;;;;;;;;;;;;;-144.99;nan;52572.44;5119548;27;20018;-72
2024/01/02 12:22:42;;;;;;;;;;;;;;;-144.99;nan;52633.59;5124132;27;20302;-71
2024/01/02 12:25:12;;;;;;;;;;;;;;;-144.99;nan;52635.63;5126124;27;19935;-70
2024/01/02 12:27:39;;;;;;;;;;;;;;;-144.99;nan;52596.88;5126489;27;20062;-71
2024/01/02 12:30:07;;;;;;;;;;;;;;;-144.99;nan;52607.09;5136860;27;19926;-70
2024/01/02 12:32:45;;;;;;;;;;;;;;;-144.99;nan;52578.53;5113981;27;19949;-71
2024/01/02 12:35:17;;;;;;;;;;;;;;;-144.99;nan;52582.63;5110886;27;20303;-72
2024/01/02 12:37:51;;;;;;;;;;;;;;;-144.99;nan;52578.53;5120363;27;20310;-72
2024/01/02 12:40:20;;;;;;;;;;;;;;;-144.99;nan;52594.84;5135116;27;20018;-72
2024/01/02 12:42:49;;;;;;;;;;;;;;;-144.99;nan;52596.88;5126861;27;19959;-72
2024/01/02 12:45:18;;;;;;;;;;;;;;;-144.99;nan;52611.16;5125333;27;20031;-72
2024/01/02 12:47:47;;;;;;;;;;;;;;;-144.99;nan;52600.97;5128888;27;20112;-73
2024/01/02 12:50:14;;;;;;;;;;;;;;;-144.99;nan;52668.22;5123064;27;19933;-71